sensor_id;sensor_type;location;lat;lon;timestamp;pressure;altitude;pressure_sealevel;temperature;humidity
11692;BME280;33659;42.672;23.354;2023-02-03T00:01:14;94563.03;;;3.56;65.82
11692;BME280;33659;42.672;23.354;2023-02-03T00:03:42;94549.78;;;3.63;65.92
11692;BME280;33659;42.672;23.354;2023-02-03T00:06:08;94532.75;;;3.62;66.20
11692;BME280;33659;42.672;23.354;2023-02-03T00:08:35;94563.44;;;3.63;66.65
11692;BME280;33659;42.672;23.354;2023-02-03T00:11:03;94550.59;;;3.58;67.42
11692;BME280;33659;42.672;23.354;2023-02-03T00:13:30;94551.72;;;3.52;67.75
11692;BME280;33659;42.672;23.354;2023-02-03T00:15:57;94542.38;;;3.56;68.00
11692;BME280;33659;42.672;23.354;2023-02-03T00:18:27;94580.59;;;3.54;68.25
11692;BME280;33659;42.672;23.354;2023-02-03T00:20:54;94551.00;;;3.46;68.62
11692;BME280;33659;42.672;23.354;2023-02-03T00:23:20;94551.78;;;3.47;69.22
11692;BME280;33659;42.672;23.354;2023-02-03T00:25:47;94547.16;;;3.44;69.46
11692;BME280;33659;42.672;23.354;2023-02-03T00:28:14;94553.59;;;3.46;69.28
11692;BME280;33659;42.672;23.354;2023-02-03T00:30:40;94542.06;;;3.39;69.61
11692;BME280;33659;42.672;23.354;2023-02-03T00:33:07;94572.56;;;3.37;70.83
11692;BME280;33659;42.672;23.354;2023-02-03T00:35:37;94557.13;;;3.32;70.65
11692;BME280;33659;42.672;23.354;2023-02-03T00:38:05;94565.34;;;3.34;71.44
11692;BME280;33659;42.672;23.354;2023-02-03T00:40:31;94562.75;;;3.34;71.78
11692;BME280;33659;42.672;23.354;2023-02-03T00:42:58;94567.50;;;3.26;71.55
11692;BME280;33659;42.672;23.354;2023-02-03T00:45:24;94572.94;;;3.25;71.86
11692;BME280;33659;42.672;23.354;2023-02-03T00:47:51;94584.78;;;3.26;72.56
11692;BME280;33659;42.672;23.354;2023-02-03T00:50:18;94582.16;;;3.31;72.05
11692;BME280;33659;42.672;23.354;2023-02-03T00:52:46;94574.56;;;3.40;72.42
11692;BME280;33659;42.672;23.354;2023-02-03T00:55:13;94576.00;;;3.51;71.80
11692;BME280;33659;42.672;23.354;2023-02-03T00:57:39;94583.25;;;3.49;72.17
11692;BME280;33659;42.672;23.354;2023-02-03T01:00:07;94587.78;;;3.57;72.01
11692;BME280;33659;42.672;23.354;2023-02-03T01:02:34;94592.59;;;3.45;72.21
11692;BME280;33659;42.672;23.354;2023-02-03T01:05:01;94587.84;;;3.52;71.70
11692;BME280;33659;42.672;23.354;2023-02-03T01:07:30;94587.91;;;3.47;72.05
11692;BME280;33659;42.672;23.354;2023-02-03T01:09:58;94603.28;;;3.57;72.22
11692;BME280;33659;42.672;23.354;2023-02-03T01:12:25;94608.56;;;3.47;72.76
11692;BME280;33659;42.672;23.354;2023-02-03T01:14:54;94593.91;;;3.42;72.91
11692;BME280;33659;42.672;23.354;2023-02-03T01:17:20;94593.16;;;3.42;72.86
11692;BME280;33659;42.672;23.354;2023-02-03T01:19:47;94580.38;;;3.50;73.16
11692;BME280;33659;42.672;23.354;2023-02-03T01:22:13;94581.25;;;3.41;72.69
11692;BME280;33659;42.672;23.354;2023-02-03T01:24:40;94590.19;;;3.30;72.21
11692;BME280;33659;42.672;23.354;2023-02-03T01:27:08;94575.84;;;3.18;73.42
11692;BME280;33659;42.672;23.354;2023-02-03T01:29:35;94570.69;;;3.18;72.89
11692;BME280;33659;42.672;23.354;2023-02-03T01:32:02;94572.72;;;3.21;72.99
11692;BME280;33659;42.672;23.354;2023-02-03T01:34:28;94580.28;;;3.13;71.51
11692;BME280;33659;42.672;23.354;2023-02-03T01:36:55;94578.03;;;3.06;71.80
11692;BME280;33659;42.672;23.354;2023-02-03T01:39:22;94587.38;;;3.02;71.88
11692;BME280;33659;42.672;23.354;2023-02-03T01:41:50;94589.94;;;3.02;71.33
11692;BME280;33659;42.672;23.354;2023-02-03T01:44:42;94572.50;;;2.94;71.51
11692;BME280;33659;42.672;23.354;2023-02-03T01:47:17;94588.84;;;3.08;71.20
11692;BME280;33659;42.672;23.354;2023-02-03T01:49:48;94610.56;;;3.02;71.29
11692;BME280;33659;42.672;23.354;2023-02-03T01:52:18;94596.19;;;2.96;70.99
11692;BME280;33659;42.672;23.354;2023-02-03T01:54:47;94609.38;;;2.94;71.90
11692;BME280;33659;42.672;23.354;2023-02-03T01:57:19;94618.97;;;2.89;71.41
11692;BME280;33659;42.672;23.354;2023-02-03T01:59:48;94599.25;;;2.74;71.47
11692;BME280;33659;42.672;23.354;2023-02-03T02:02:17;94624.25;;;2.74;72.24
11692;BME280;33659;42.672;23.354;2023-02-03T02:04:51;94610.09;;;2.71;72.09
11692;BME280;33659;42.672;23.354;2023-02-03T02:07:20;94611.72;;;2.62;72.54
11692;BME280;33659;42.672;23.354;2023-02-03T02:09:47;94613.78;;;2.65;72.67
11692;BME280;33659;42.672;23.354;2023-02-03T02:12:14;94626.09;;;2.68;72.60
11692;BME280;33659;42.672;23.354;2023-02-03T02:14:42;94618.19;;;2.59;72.22
11692;BME280;33659;42.672;23.354;2023-02-03T02:17:19;94630.03;;;2.60;72.16
11692;BME280;33659;42.672;23.354;2023-02-03T02:20:28;94623.88;;;2.56;71.70
11692;BME280;33659;42.672;23.354;2023-02-03T02:26:39;94648.13;;;2.55;72.38
11692;BME280;33659;42.672;23.354;2023-02-03T02:32:29;94627.94;;;2.62;72.03
11692;BME280;33659;42.672;23.354;2023-02-03T02:35:03;94654.50;;;2.63;71.64
11692;BME280;33659;42.672;23.354;2023-02-03T02:37:39;94660.41;;;2.63;71.59
11692;BME280;33659;42.672;23.354;2023-02-03T02:40:16;94649.34;;;2.63;71.85
11692;BME280;33659;42.672;23.354;2023-02-03T02:43:00;94639.84;;;2.58;71.64
11692;BME280;33659;42.672;23.354;2023-02-03T02:45:30;94656.63;;;2.56;71.93
11692;BME280;33659;42.672;23.354;2023-02-03T02:48:04;94661.75;;;2.61;71.64
11692;BME280;33659;42.672;23.354;2023-02-03T02:50:37;94625.91;;;2.64;71.68
11692;BME280;33659;42.672;23.354;2023-02-03T02:53:07;94637.75;;;2.65;71.24
11692;BME280;33659;42.672;23.354;2023-02-03T02:55:37;94656.59;;;2.61;71.31
11692;BME280;33659;42.672;23.354;2023-02-03T02:58:08;94638.28;;;2.57;71.24
11692;BME280;33659;42.672;23.354;2023-02-03T03:00:36;94630.03;;;2.60;71.12
11692;BME280;33659;42.672;23.354;2023-02-03T03:03:14;94646.03;;;2.57;71.15
11692;BME280;33659;42.672;23.354;2023-02-03T03:05:45;94628.50;;;2.59;70.72
11692;BME280;33659;42.672;23.354;2023-02-03T03:08:15;94663.06;;;2.58;70.58
11692;BME280;33659;42.672;23.354;2023-02-03T03:10:44;94644.81;;;2.50;70.83
11692;BME280;33659;42.672;23.354;2023-02-03T03:13:19;94662.56;;;2.51;69.59
11692;BME280;33659;42.672;23.354;2023-02-03T03:15:47;94637.91;;;2.45;69.48
11692;BME280;33659;42.672;23.354;2023-02-03T03:18:20;94655.69;;;2.41;69.79
11692;BME280;33659;42.672;23.354;2023-02-03T03:20:50;94670.09;;;2.42;69.42
11692;BME280;33659;42.672;23.354;2023-02-03T03:23:21;94678.13;;;2.41;69.73
11692;BME280;33659;42.672;23.354;2023-02-03T03:25:53;94641.50;;;2.44;69.09
11692;BME280;33659;42.672;23.354;2023-02-03T03:28:27;94662.09;;;2.44;68.61
11692;BME280;33659;42.672;23.354;2023-02-03T03:30:56;94657.53;;;2.36;69.20
11692;BME280;33659;42.672;23.354;2023-02-03T03:33:24;94665.81;;;2.33;68.84
11692;BME280;33659;42.672;23.354;2023-02-03T03:35:55;94671.47;;;2.30;67.81
11692;BME280;33659;42.672;23.354;2023-02-03T03:38:24;94672.22;;;2.35;68.11
11692;BME280;33659;42.672;23.354;2023-02-03T03:41:01;94684.09;;;2.31;67.90
11692;BME280;33659;42.672;23.354;2023-02-03T03:43:31;94660.66;;;2.33;68.10
11692;BME280;33659;42.672;23.354;2023-02-03T03:46:05;94666.31;;;2.35;68.44
11692;BME280;33659;42.672;23.354;2023-02-03T03:48:39;94696.19;;;2.31;68.69
11692;BME280;33659;42.672;23.354;2023-02-03T03:51:16;94659.06;;;2.37;67.93
11692;BME280;33659;42.672;23.354;2023-02-03T03:53:46;94681.78;;;2.30;68.64
11692;BME280;33659;42.672;23.354;2023-02-03T03:56:20;94687.94;;;2.34;68.50
11692;BME280;33659;42.672;23.354;2023-02-03T03:58:49;94665.72;;;2.43;68.25
11692;BME280;33659;42.672;23.354;2023-02-03T04:01:17;94665.22;;;2.41;68.27
11692;BME280;33659;42.672;23.354;2023-02-03T04:03:49;94676.81;;;2.43;68.59
11692;BME280;33659;42.672;23.354;2023-02-03T04:06:18;94677.53;;;2.49;68.07
11692;BME280;33659;42.672;23.354;2023-02-03T04:08:44;94686.56;;;2.52;67.64
11692;BME280;33659;42.672;23.354;2023-02-03T04:11:11;94683.94;;;2.57;67.95
11692;BME280;33659;42.672;23.354;2023-02-03T04:13:58;94704.31;;;2.58;67.81
11692;BME280;33659;42.672;23.354;2023-02-03T04:16:24;94698.28;;;2.68;68.45
11692;BME280;33659;42.672;23.354;2023-02-03T04:18:52;94681.56;;;2.65;67.83
11692;BME280;33659;42.672;23.354;2023-02-03T04:21:19;94695.97;;;2.71;67.60
11692;BME280;33659;42.672;23.354;2023-02-03T04:23:46;94703.41;;;2.73;67.59
11692;BME280;33659;42.672;23.354;2023-02-03T04:26:12;94718.88;;;2.73;67.85
11692;BME280;33659;42.672;23.354;2023-02-03T04:28:39;94726.94;;;2.66;68.28
11692;BME280;33659;42.672;23.354;2023-02-03T04:31:06;94734.84;;;2.75;67.93
11692;BME280;33659;42.672;23.354;2023-02-03T04:33:32;94732.53;;;2.79;68.09
11692;BME280;33659;42.672;23.354;2023-02-03T04:36:00;94735.09;;;2.79;67.46
11692;BME280;33659;42.672;23.354;2023-02-03T04:38:27;94727.69;;;2.67;67.73
11692;BME280;33659;42.672;23.354;2023-02-03T04:40:54;94722.81;;;2.65;67.72
11692;BME280;33659;42.672;23.354;2023-02-03T04:43:20;94730.53;;;2.70;67.72
11692;BME280;33659;42.672;23.354;2023-02-03T04:45:47;94737.00;;;2.63;68.49
11692;BME280;33659;42.672;23.354;2023-02-03T04:48:14;94733.38;;;2.64;67.96
11692;BME280;33659;42.672;23.354;2023-02-03T04:50:40;94743.03;;;2.48;67.63
11692;BME280;33659;42.672;23.354;2023-02-03T04:53:08;94750.63;;;2.68;68.12
11692;BME280;33659;42.672;23.354;2023-02-03T04:55:35;94758.81;;;2.76;67.59
11692;BME280;33659;42.672;23.354;2023-02-03T04:58:01;94743.34;;;2.76;67.56
11692;BME280;33659;42.672;23.354;2023-02-03T05:00:29;94759.34;;;2.78;67.42
11692;BME280;33659;42.672;23.354;2023-02-03T05:02:55;94755.25;;;2.71;68.08
11692;BME280;33659;42.672;23.354;2023-02-03T05:05:22;94767.38;;;2.71;68.23
11692;BME280;33659;42.672;23.354;2023-02-03T05:07:49;94774.84;;;2.72;67.76
11692;BME280;33659;42.672;23.354;2023-02-03T05:10:17;94774.81;;;2.78;67.92
11692;BME280;33659;42.672;23.354;2023-02-03T05:12:44;94784.59;;;2.81;66.89
11692;BME280;33659;42.672;23.354;2023-02-03T05:15:10;94774.56;;;2.79;67.58
11692;BME280;33659;42.672;23.354;2023-02-03T05:17:37;94789.00;;;2.75;67.62
11692;BME280;33659;42.672;23.354;2023-02-03T05:20:05;94779.50;;;2.70;67.49
11692;BME280;33659;42.672;23.354;2023-02-03T05:22:32;94780.00;;;2.72;67.33
11692;BME280;33659;42.672;23.354;2023-02-03T05:24:59;94776.94;;;2.70;68.13
11692;BME280;33659;42.672;23.354;2023-02-03T05:27:27;94780.75;;;2.78;67.04
11692;BME280;33659;42.672;23.354;2023-02-03T05:29:54;94791.31;;;2.77;67.45
11692;BME280;33659;42.672;23.354;2023-02-03T05:32:21;94806.59;;;2.68;67.97
11692;BME280;33659;42.672;23.354;2023-02-03T05:34:47;94769.53;;;2.54;68.02
11692;BME280;33659;42.672;23.354;2023-02-03T05:37:14;94803.31;;;2.52;68.22
11692;BME280;33659;42.672;23.354;2023-02-03T05:39:41;94809.00;;;2.49;68.03
11692;BME280;33659;42.672;23.354;2023-02-03T05:42:10;94779.13;;;2.43;68.51
11692;BME280;33659;42.672;23.354;2023-02-03T05:44:37;94789.72;;;2.36;68.33
11692;BME280;33659;42.672;23.354;2023-02-03T05:47:03;94790.97;;;2.44;68.46
11692;BME280;33659;42.672;23.354;2023-02-03T05:49:30;94790.25;;;2.33;68.16
11692;BME280;33659;42.672;23.354;2023-02-03T05:51:57;94794.06;;;2.46;68.64
11692;BME280;33659;42.672;23.354;2023-02-03T05:54:24;94805.91;;;2.47;68.36
11692;BME280;33659;42.672;23.354;2023-02-03T05:56:50;94816.72;;;2.49;68.80
11692;BME280;33659;42.672;23.354;2023-02-03T05:59:17;94820.84;;;2.50;68.26
11692;BME280;33659;42.672;23.354;2023-02-03T06:01:45;94794.06;;;2.46;67.97
11692;BME280;33659;42.672;23.354;2023-02-03T06:04:12;94817.56;;;2.39;68.03
11692;BME280;33659;42.672;23.354;2023-02-03T06:06:38;94825.50;;;2.43;68.66
11692;BME280;33659;42.672;23.354;2023-02-03T06:09:06;94821.38;;;2.47;68.56
11692;BME280;33659;42.672;23.354;2023-02-03T06:11:34;94809.75;;;2.50;68.38
11692;BME280;33659;42.672;23.354;2023-02-03T06:14:01;94814.41;;;2.48;67.70
11692;BME280;33659;42.672;23.354;2023-02-03T06:16:28;94817.50;;;2.44;67.90
11692;BME280;33659;42.672;23.354;2023-02-03T06:18:56;94831.69;;;2.42;68.66
11692;BME280;33659;42.672;23.354;2023-02-03T06:21:25;94808.53;;;2.37;67.88
11692;BME280;33659;42.672;23.354;2023-02-03T06:23:52;94828.09;;;2.43;68.24
11692;BME280;33659;42.672;23.354;2023-02-03T06:26:19;94822.91;;;2.48;67.52
11692;BME280;33659;42.672;23.354;2023-02-03T06:28:46;94846.59;;;2.60;67.35
11692;BME280;33659;42.672;23.354;2023-02-03T06:31:13;94819.19;;;2.69;66.95
11692;BME280;33659;42.672;23.354;2023-02-03T06:33:39;94834.16;;;2.72;66.51
11692;BME280;33659;42.672;23.354;2023-02-03T06:36:08;94843.13;;;2.80;66.01
11692;BME280;33659;42.672;23.354;2023-02-03T06:38:35;94866.84;;;2.82;65.26
11692;BME280;33659;42.672;23.354;2023-02-03T06:41:01;94869.94;;;2.84;65.31
11692;BME280;33659;42.672;23.354;2023-02-03T06:43:28;94853.94;;;2.82;65.60
11692;BME280;33659;42.672;23.354;2023-02-03T06:45:55;94850.31;;;2.88;65.12
11692;BME280;33659;42.672;23.354;2023-02-03T06:48:21;94867.81;;;2.96;65.14
11692;BME280;33659;42.672;23.354;2023-02-03T06:50:48;94878.63;;;2.98;64.22
11692;BME280;33659;42.672;23.354;2023-02-03T06:53:16;94876.81;;;3.04;64.86
11692;BME280;33659;42.672;23.354;2023-02-03T06:55:43;94849.63;;;3.17;63.58
11692;BME280;33659;42.672;23.354;2023-02-03T06:58:09;94860.00;;;3.12;63.82
11692;BME280;33659;42.672;23.354;2023-02-03T07:00:36;94860.75;;;3.12;63.07
11692;BME280;33659;42.672;23.354;2023-02-03T07:03:03;94865.91;;;3.12;62.53
11692;BME280;33659;42.672;23.354;2023-02-03T07:05:29;94845.59;;;3.01;62.55
11692;BME280;33659;42.672;23.354;2023-02-03T07:07:56;94877.88;;;2.93;63.92
11692;BME280;33659;42.672;23.354;2023-02-03T07:10:24;94846.38;;;3.01;63.71
11692;BME280;33659;42.672;23.354;2023-02-03T07:12:51;94802.06;;;2.89;64.22
11692;BME280;33659;42.672;23.354;2023-02-03T07:15:18;94851.13;;;2.84;63.79
11692;BME280;33659;42.672;23.354;2023-02-03T07:17:46;94816.31;;;2.81;64.92
11692;BME280;33659;42.672;23.354;2023-02-03T07:20:19;94843.88;;;2.86;63.87
11692;BME280;33659;42.672;23.354;2023-02-03T07:22:50;94811.88;;;2.92;63.45
11692;BME280;33659;42.672;23.354;2023-02-03T07:25:17;94824.00;;;2.91;63.54
11692;BME280;33659;42.672;23.354;2023-02-03T07:27:45;94812.16;;;2.85;63.81
11692;BME280;33659;42.672;23.354;2023-02-03T07:30:13;94860.63;;;2.88;63.30
11692;BME280;33659;42.672;23.354;2023-02-03T07:32:39;94834.81;;;2.93;63.38
11692;BME280;33659;42.672;23.354;2023-02-03T07:35:06;94827.34;;;2.92;63.66
11692;BME280;33659;42.672;23.354;2023-02-03T07:37:33;94842.31;;;2.90;63.40
11692;BME280;33659;42.672;23.354;2023-02-03T07:40:00;94844.63;;;2.91;63.14
11692;BME280;33659;42.672;23.354;2023-02-03T07:42:27;94855.16;;;2.95;63.13
11692;BME280;33659;42.672;23.354;2023-02-03T07:44:55;94846.91;;;2.98;63.49
11692;BME280;33659;42.672;23.354;2023-02-03T07:47:21;94805.63;;;3.03;63.00
11692;BME280;33659;42.672;23.354;2023-02-03T07:49:48;94857.44;;;3.02;62.34
11692;BME280;33659;42.672;23.354;2023-02-03T07:52:15;94853.34;;;2.95;62.75
11692;BME280;33659;42.672;23.354;2023-02-03T07:54:41;94851.78;;;3.05;62.64
11692;BME280;33659;42.672;23.354;2023-02-03T07:57:08;94841.22;;;2.96;62.95
11692;BME280;33659;42.672;23.354;2023-02-03T07:59:34;94844.56;;;3.02;62.40
11692;BME280;33659;42.672;23.354;2023-02-03T08:02:02;94834.00;;;3.03;62.42
11692;BME280;33659;42.672;23.354;2023-02-03T08:04:30;94864.16;;;3.03;62.92
11692;BME280;33659;42.672;23.354;2023-02-03T08:06:56;94853.31;;;3.06;62.31
11692;BME280;33659;42.672;23.354;2023-02-03T08:09:23;94854.56;;;3.08;61.81
11692;BME280;33659;42.672;23.354;2023-02-03T08:11:50;94938.44;;;3.11;62.44
11692;BME280;33659;42.672;23.354;2023-02-03T08:14:16;94877.56;;;3.10;62.17
11692;BME280;33659;42.672;23.354;2023-02-03T08:16:43;94882.91;;;3.18;61.91
11692;BME280;33659;42.672;23.354;2023-02-03T08:19:12;94874.31;;;3.28;62.39
11692;BME280;33659;42.672;23.354;2023-02-03T08:21:39;94890.00;;;3.42;62.28
11692;BME280;33659;42.672;23.354;2023-02-03T08:24:05;94895.28;;;3.61;61.69
11692;BME280;33659;42.672;23.354;2023-02-03T08:26:32;94895.97;;;3.71;60.95
11692;BME280;33659;42.672;23.354;2023-02-03T08:28:59;94894.25;;;3.91;61.20
11692;BME280;33659;42.672;23.354;2023-02-03T08:31:25;94903.31;;;3.93;60.27
11692;BME280;33659;42.672;23.354;2023-02-03T08:33:52;94897.13;;;3.89;59.62
11692;BME280;33659;42.672;23.354;2023-02-03T08:36:20;94912.94;;;3.83;58.68
11692;BME280;33659;42.672;23.354;2023-02-03T08:38:47;94895.38;;;3.79;59.29
11692;BME280;33659;42.672;23.354;2023-02-03T08:41:15;94897.06;;;3.60;59.36
11692;BME280;33659;42.672;23.354;2023-02-03T08:43:42;94897.56;;;3.67;59.02
11692;BME280;33659;42.672;23.354;2023-02-03T08:46:10;94885.47;;;3.63;58.99
11692;BME280;33659;42.672;23.354;2023-02-03T08:48:37;94943.84;;;3.59;59.41
11692;BME280;33659;42.672;23.354;2023-02-03T08:51:09;94894.03;;;3.53;59.72
11692;BME280;33659;42.672;23.354;2023-02-03T08:53:37;94936.25;;;3.72;59.13
11692;BME280;33659;42.672;23.354;2023-02-03T08:56:05;94930.97;;;3.88;59.09
11692;BME280;33659;42.672;23.354;2023-02-03T08:58:32;94912.31;;;3.96;58.11
11692;BME280;33659;42.672;23.354;2023-02-03T09:01:05;94925.25;;;3.91;58.73
11692;BME280;33659;42.672;23.354;2023-02-03T09:03:33;94928.13;;;3.89;58.70
11692;BME280;33659;42.672;23.354;2023-02-03T09:05:59;94927.50;;;4.02;59.25
11692;BME280;33659;42.672;23.354;2023-02-03T09:08:26;94951.69;;;4.12;59.31
11692;BME280;33659;42.672;23.354;2023-02-03T09:10:55;94947.22;;;4.22;59.04
11692;BME280;33659;42.672;23.354;2023-02-03T09:13:22;94905.59;;;4.24;58.58
11692;BME280;33659;42.672;23.354;2023-02-03T09:15:48;94921.78;;;4.34;57.58
11692;BME280;33659;42.672;23.354;2023-02-03T09:18:15;94928.31;;;4.27;58.71
11692;BME280;33659;42.672;23.354;2023-02-03T09:20:42;94923.44;;;4.25;58.16
11692;BME280;33659;42.672;23.354;2023-02-03T09:23:08;94959.84;;;4.00;58.20
11692;BME280;33659;42.672;23.354;2023-02-03T09:25:35;94894.50;;;3.94;59.47
11692;BME280;33659;42.672;23.354;2023-02-03T09:28:03;95011.09;;;4.17;59.16
11692;BME280;33659;42.672;23.354;2023-02-03T09:30:30;94928.28;;;4.32;58.97
11692;BME280;33659;42.672;23.354;2023-02-03T09:32:57;94948.44;;;4.30;58.20
11692;BME280;33659;42.672;23.354;2023-02-03T09:35:23;94917.97;;;4.27;58.79
11692;BME280;33659;42.672;23.354;2023-02-03T09:37:51;94924.81;;;4.42;58.76
11692;BME280;33659;42.672;23.354;2023-02-03T09:40:21;94904.28;;;4.50;58.13
11692;BME280;33659;42.672;23.354;2023-02-03T09:43:08;94904.13;;;4.66;57.26
11692;BME280;33659;42.672;23.354;2023-02-03T09:45:37;94867.69;;;4.62;56.52
11692;BME280;33659;42.672;23.354;2023-02-03T09:48:10;94912.44;;;4.39;55.39
11692;BME280;33659;42.672;23.354;2023-02-03T09:50:38;94885.31;;;4.36;56.20
11692;BME280;33659;42.672;23.354;2023-02-03T09:53:13;94897.25;;;4.56;55.36
11692;BME280;33659;42.672;23.354;2023-02-03T09:55:46;94900.13;;;4.78;54.76
11692;BME280;33659;42.672;23.354;2023-02-03T09:58:15;94880.13;;;4.84;53.50
11692;BME280;33659;42.672;23.354;2023-02-03T10:00:47;94863.06;;;5.02;53.46
11692;BME280;33659;42.672;23.354;2023-02-03T10:03:23;94895.00;;;5.16;53.86
11692;BME280;33659;42.672;23.354;2023-02-03T10:06:20;94901.78;;;5.50;53.14
11692;BME280;33659;42.672;23.354;2023-02-03T10:09:18;94873.41;;;5.58;52.55
11692;BME280;33659;42.672;23.354;2023-02-03T10:12:19;94862.81;;;5.74;51.10
11692;BME280;33659;42.672;23.354;2023-02-03T10:15:02;94866.16;;;5.74;50.47
11692;BME280;33659;42.672;23.354;2023-02-03T10:17:37;94887.22;;;5.86;49.42
11692;BME280;33659;42.672;23.354;2023-02-03T10:20:10;94821.22;;;5.65;49.80
11692;BME280;33659;42.672;23.354;2023-02-03T10:22:43;94880.94;;;5.41;51.11
11692;BME280;33659;42.672;23.354;2023-02-03T10:25:18;94865.81;;;5.29;52.12
11692;BME280;33659;42.672;23.354;2023-02-03T10:27:50;94859.91;;;5.42;52.02
11692;BME280;33659;42.672;23.354;2023-02-03T10:30:21;94851.03;;;5.49;52.75
11692;BME280;33659;42.672;23.354;2023-02-03T10:32:50;94839.06;;;5.66;50.71
11692;BME280;33659;42.672;23.354;2023-02-03T10:35:20;94864.44;;;5.51;49.48
11692;BME280;33659;42.672;23.354;2023-02-03T10:37:49;94885.03;;;5.61;48.74
11692;BME280;33659;42.672;23.354;2023-02-03T10:40:17;94871.75;;;5.49;48.06
11692;BME280;33659;42.672;23.354;2023-02-03T10:42:46;94873.94;;;5.23;48.92
11692;BME280;33659;42.672;23.354;2023-02-03T10:45:36;94903.19;;;5.23;49.27
11692;BME280;33659;42.672;23.354;2023-02-03T10:48:04;94870.47;;;5.08;50.23
11692;BME280;33659;42.672;23.354;2023-02-03T10:50:35;94867.59;;;4.72;51.38
11692;BME280;33659;42.672;23.354;2023-02-03T10:53:20;94872.78;;;4.48;52.11
11692;BME280;33659;42.672;23.354;2023-02-03T10:55:49;94837.75;;;4.56;52.38
11692;BME280;33659;42.672;23.354;2023-02-03T10:58:21;94837.84;;;4.51;52.71
11692;BME280;33659;42.672;23.354;2023-02-03T11:00:54;94854.38;;;4.50;52.18
11692;BME280;33659;42.672;23.354;2023-02-03T11:03:23;94855.75;;;4.42;49.21
11692;BME280;33659;42.672;23.354;2023-02-03T11:06:06;94854.41;;;4.26;48.39
11692;BME280;33659;42.672;23.354;2023-02-03T11:08:34;94866.50;;;4.30;48.82
11692;BME280;33659;42.672;23.354;2023-02-03T11:11:03;94839.16;;;4.24;48.61
11692;BME280;33659;42.672;23.354;2023-02-03T11:13:29;94884.22;;;4.42;48.37
11692;BME280;33659;42.672;23.354;2023-02-03T11:15:59;94877.28;;;4.61;48.21
11692;BME280;33659;42.672;23.354;2023-02-03T11:18:50;94878.38;;;4.79;47.83
11692;BME280;33659;42.672;23.354;2023-02-03T11:21:19;94853.50;;;4.83;48.34
11692;BME280;33659;42.672;23.354;2023-02-03T11:23:53;94851.44;;;4.80;46.55
11692;BME280;33659;42.672;23.354;2023-02-03T11:26:23;94902.75;;;5.16;46.51
11692;BME280;33659;42.672;23.354;2023-02-03T11:28:53;94849.56;;;5.42;45.57
11692;BME280;33659;42.672;23.354;2023-02-03T11:31:26;94830.44;;;5.71;45.20
11692;BME280;33659;42.672;23.354;2023-02-03T11:33:56;94837.84;;;6.24;44.92
11692;BME280;33659;42.672;23.354;2023-02-03T11:36:29;94823.34;;;6.78;43.57
11692;BME280;33659;42.672;23.354;2023-02-03T11:39:20;94832.13;;;7.27;42.73
11692;BME280;33659;42.672;23.354;2023-02-03T11:41:49;94828.78;;;7.49;41.73
11692;BME280;33659;42.672;23.354;2023-02-03T11:44:19;94811.94;;;7.46;41.69
11692;BME280;33659;42.672;23.354;2023-02-03T11:46:50;94819.50;;;7.12;42.31
11692;BME280;33659;42.672;23.354;2023-02-03T11:49:50;94809.03;;;6.53;42.18
11692;BME280;33659;42.672;23.354;2023-02-03T11:52:41;94784.94;;;5.97;42.31
11692;BME280;33659;42.672;23.354;2023-02-03T11:55:19;94784.13;;;5.37;43.07
11692;BME280;33659;42.672;23.354;2023-02-03T11:57:54;94791.16;;;5.18;43.08
11692;BME280;33659;42.672;23.354;2023-02-03T12:00:29;94813.19;;;5.15;43.19
11692;BME280;33659;42.672;23.354;2023-02-03T12:03:16;94794.03;;;5.16;42.79
11692;BME280;33659;42.672;23.354;2023-02-03T12:05:58;94816.91;;;5.09;43.53
11692;BME280;33659;42.672;23.354;2023-02-03T12:08:36;94762.63;;;5.04;44.01
11692;BME280;33659;42.672;23.354;2023-02-03T12:11:11;94800.06;;;4.93;43.31
11692;BME280;33659;42.672;23.354;2023-02-03T12:13:55;94803.22;;;4.89;41.99
11692;BME280;33659;42.672;23.354;2023-02-03T12:16:41;94815.34;;;5.27;41.93
11692;BME280;33659;42.672;23.354;2023-02-03T12:19:20;94847.59;;;5.34;41.17
11692;BME280;33659;42.672;23.354;2023-02-03T12:21:56;94818.34;;;5.15;41.92
11692;BME280;33659;42.672;23.354;2023-02-03T12:24:35;94822.41;;;5.02;42.11
11692;BME280;33659;42.672;23.354;2023-02-03T12:27:17;94812.59;;;5.37;40.76
11692;BME280;33659;42.672;23.354;2023-02-03T12:29:50;94831.41;;;5.94;39.78
11692;BME280;33659;42.672;23.354;2023-02-03T12:32:25;94799.22;;;6.50;38.61
11692;BME280;33659;42.672;23.354;2023-02-03T12:35:00;94813.88;;;6.82;38.15
11692;BME280;33659;42.672;23.354;2023-02-03T12:37:35;94856.09;;;6.88;37.92
11692;BME280;33659;42.672;23.354;2023-02-03T12:40:12;94808.09;;;6.35;38.97
11692;BME280;33659;42.672;23.354;2023-02-03T12:42:45;94795.16;;;5.75;39.96
11692;BME280;33659;42.672;23.354;2023-02-03T12:45:17;94802.72;;;5.39;41.44
11692;BME280;33659;42.672;23.354;2023-02-03T12:47:49;94769.28;;;5.10;41.99
11692;BME280;33659;42.672;23.354;2023-02-03T12:50:22;94789.34;;;4.99;42.65
11692;BME280;33659;42.672;23.354;2023-02-03T12:52:54;94771.66;;;4.87;43.14
11692;BME280;33659;42.672;23.354;2023-02-03T12:55:27;94789.56;;;4.65;44.04
11692;BME280;33659;42.672;23.354;2023-02-03T12:57:59;94781.38;;;4.96;43.61
11692;BME280;33659;42.672;23.354;2023-02-03T13:00:35;94779.81;;;5.13;43.71
11692;BME280;33659;42.672;23.354;2023-02-03T13:03:12;94786.94;;;6.56;41.27
11692;BME280;33659;42.672;23.354;2023-02-03T13:05:46;94799.69;;;7.38;39.42
11692;BME280;33659;42.672;23.354;2023-02-03T13:08:24;94813.22;;;6.90;40.10
11692;BME280;33659;42.672;23.354;2023-02-03T13:11:01;94796.38;;;6.51;41.50
11692;BME280;33659;42.672;23.354;2023-02-03T13:13:34;94770.88;;;6.54;41.97
11692;BME280;33659;42.672;23.354;2023-02-03T13:16:07;94794.06;;;6.22;43.43
11692;BME280;33659;42.672;23.354;2023-02-03T13:18:37;94781.56;;;6.24;43.48
11692;BME280;33659;42.672;23.354;2023-02-03T13:21:09;94808.97;;;5.84;44.33
11692;BME280;33659;42.672;23.354;2023-02-03T13:23:36;94790.53;;;5.72;44.54